KLEB/LEB METAR and TAF weather

Enter ICAO airport designator
Station Type Date Time Source
KLEB METAR 2019/06/18 12:53 UTC NOAA

KLEB 181253Z 00000KT 10SM FEW110 17/10 A3001 RMK AO2 SLP155 T01720100


Station Type Date Time Source
KLEB Decoded METAR 2019/06/18 12:53 UTC NOAA

LEBANON MUNICIPAL AIRPORT, NH, United States (KLEB) 43-38N 072-18W 171M
Jun 18, 2019 - 08:53 AM EDT / 2019.06.18 1253 UTC
Wind: Calm:0
Visibility: 10 mile(s):0
Sky conditions: mostly clear
Temperature: 63.0 F (17.2 C)
Dew Point: 50.0 F (10.0 C)
Relative Humidity: 62%
Pressure (altimeter): 30.01 in. Hg (1016 hPa)
ob: KLEB 181253Z 00000KT 10SM FEW110 17/10 A3001 RMK AO2 SLP155 T01720100
cycle: 13

Station Type Date Time Source
KLEB TAF 2019/06/18 12:22 UTC NOAA

TAF KLEB 181120Z 1812/1912 VRB04KT P6SM BKN060
FM190600 00000KT 4SM BR OVC007

Example: see airport list